createdAt,value
2016-05-05T00:00:05.414Z,0
2016-05-05T00:01:02.354Z,0
2016-05-05T00:02:05.342Z,0
2016-05-05T00:03:05.266Z,0
2016-05-05T00:04:05.300Z,0
2016-05-05T00:05:05.177Z,0
2016-05-05T00:06:08.352Z,0
2016-05-05T00:07:08.105Z,0
2016-05-05T00:08:04.904Z,0
2016-05-05T00:09:02.033Z,0
2016-05-05T00:10:07.988Z,0
2016-05-05T00:11:05.428Z,0
2016-05-05T00:12:01.868Z,0
2016-05-05T00:13:04.886Z,0
2016-05-05T00:14:01.483Z,0
2016-05-05T00:15:01.923Z,0
2016-05-05T00:16:04.691Z,0
2016-05-05T00:17:01.865Z,0
2016-05-05T00:18:01.416Z,0
2016-05-05T00:19:07.402Z,0
2016-05-05T00:20:05.077Z,0
2016-05-05T00:21:07.533Z,0
2016-05-05T00:22:01.488Z,0
2016-05-05T00:23:01.226Z,0
2016-05-05T00:24:04.932Z,0
2016-05-05T00:25:01.293Z,0
2016-05-05T00:26:01.437Z,0
2016-05-05T00:27:01.034Z,0
2016-05-05T00:28:01.145Z,0
2016-05-05T00:29:04.101Z,0
2016-05-05T00:30:04.056Z,0
2016-05-05T00:31:04.545Z,0
2016-05-05T00:32:09.844Z,0
2016-05-05T00:33:03.814Z,0
2016-05-05T00:34:03.896Z,0
2016-05-05T00:35:00.820Z,0
2016-05-05T00:36:06.980Z,0
2016-05-05T00:37:00.764Z,0
2016-05-05T00:38:03.719Z,0
2016-05-05T00:39:04.050Z,0
2016-05-05T00:40:00.661Z,0
2016-05-05T00:41:00.555Z,0
2016-05-05T00:42:00.777Z,0
2016-05-05T00:43:00.327Z,0
2016-05-05T00:44:00.282Z,0
2016-05-05T00:45:00.238Z,0
2016-05-05T00:46:00.412Z,0
2016-05-05T00:47:03.338Z,0
2016-05-05T00:48:00.262Z,0
2016-05-05T00:49:03.218Z,0
2016-05-05T00:50:03.173Z,0
2016-05-05T00:50:59.989Z,0
2016-05-05T00:52:00.069Z,0
2016-05-05T00:53:02.604Z,0
2016-05-05T00:54:05.715Z,0
2016-05-05T00:55:02.827Z,0
2016-05-05T00:56:12.034Z,0
2016-05-05T00:57:00.412Z,0
2016-05-05T00:57:59.790Z,0
2016-05-05T00:58:59.776Z,0
2016-05-05T01:00:02.559Z,0
2016-05-05T01:00:59.937Z,0
2016-05-05T01:01:59.628Z,0
2016-05-05T01:02:59.567Z,0
2016-05-05T01:03:59.539Z,0
2016-05-05T01:04:59.479Z,0
2016-05-05T01:05:59.436Z,0
2016-05-05T01:06:59.232Z,0
2016-05-05T01:07:59.359Z,0
2016-05-05T01:09:02.427Z,0
2016-05-05T01:10:02.274Z,0
2016-05-05T01:10:59.274Z,0
2016-05-05T01:11:59.370Z,0
2016-05-05T01:12:58.997Z,0
2016-05-05T01:13:59.079Z,0
2016-05-05T01:14:59.050Z,0
2016-05-05T01:16:01.869Z,0
2016-05-05T01:17:02.152Z,0
2016-05-05T01:18:01.921Z,0
2016-05-05T01:19:01.548Z,0
2016-05-05T01:19:58.798Z,0
2016-05-05T01:21:01.460Z,0
2016-05-05T01:22:01.713Z,0
2016-05-05T01:23:01.699Z,0
2016-05-05T01:23:58.684Z,0
2016-05-05T01:25:01.815Z,0
2016-05-05T01:25:58.737Z,0
2016-05-05T01:26:58.505Z,0
2016-05-05T01:27:58.460Z,0
2016-05-05T01:29:01.434Z,0
2016-05-05T01:29:58.387Z,0
2016-05-05T01:30:58.531Z,0
2016-05-05T01:31:58.268Z,0
2016-05-05T01:32:58.271Z,0
2016-05-05T01:34:01.011Z,0
2016-05-05T01:34:58.151Z,0
2016-05-05T01:36:01.298Z,0
2016-05-05T01:37:04.081Z,0
2016-05-05T01:38:03.990Z,0
2016-05-05T01:38:57.818Z,0
2016-05-05T01:40:01.105Z,0
2016-05-05T01:41:00.589Z,0
2016-05-05T01:42:00.845Z,0
2016-05-05T01:42:57.626Z,0
2016-05-05T01:44:00.738Z,0
2016-05-05T01:44:57.694Z,0
2016-05-05T01:46:00.681Z,0
2016-05-05T01:46:57.605Z,0
2016-05-05T01:47:57.576Z,0
2016-05-05T01:49:00.360Z,0
2016-05-05T01:49:57.332Z,0
2016-05-05T01:51:01.697Z,0
2016-05-05T01:52:00.494Z,0
2016-05-05T01:52:57.533Z,0
2016-05-05T01:54:00.187Z,0
2016-05-05T01:54:57.327Z,0
2016-05-05T01:55:57.184Z,0
2016-05-05T01:57:03.386Z,0
2016-05-05T01:57:57.808Z,0
2016-05-05T01:58:57.279Z,0
2016-05-05T01:59:56.985Z,0
2016-05-05T02:00:57.440Z,0
2016-05-05T02:01:57.194Z,0
2016-05-05T02:03:03.044Z,0
2016-05-05T02:05:00.895Z,0
2016-05-05T02:06:03.991Z,0
2016-05-05T02:07:03.950Z,0
2016-05-05T02:08:01.090Z,0
2016-05-05T02:09:01.220Z,0
2016-05-05T02:10:00.804Z,0
2016-05-05T02:11:06.983Z,0
2016-05-05T02:12:03.723Z,0
2016-05-05T02:13:00.879Z,0
2016-05-05T02:14:03.651Z,0
2016-05-05T02:15:03.578Z,0
2016-05-05T02:16:00.546Z,0
2016-05-05T02:17:03.521Z,0
2016-05-05T02:18:00.662Z,0
2016-05-05T02:19:03.465Z,0
2016-05-05T02:20:00.355Z,0
2016-05-05T02:21:00.296Z,0
2016-05-05T02:22:06.490Z,0
2016-05-05T02:23:07.229Z,0
2016-05-05T02:24:00.229Z,0
2016-05-05T02:25:03.140Z,0
2016-05-05T02:26:00.077Z,0
2016-05-05T02:26:59.939Z,0
2016-05-05T02:28:00.020Z,0
2016-05-05T02:28:59.820Z,0
2016-05-05T02:29:59.635Z,0
2016-05-05T02:31:05.734Z,0
2016-05-05T02:32:02.843Z,0
2016-05-05T02:33:02.987Z,0
2016-05-05T02:34:02.598Z,0
2016-05-05T02:35:00.101Z,0
2016-05-05T02:36:02.542Z,0
2016-05-05T02:37:02.606Z,0
2016-05-05T02:38:02.625Z,0
2016-05-05T02:38:59.487Z,0
2016-05-05T02:39:59.443Z,0
2016-05-05T02:40:59.618Z,0
2016-05-05T02:42:05.248Z,0
2016-05-05T02:43:02.342Z,0
2016-05-05T02:43:59.297Z,0
2016-05-05T02:44:59.254Z,0
2016-05-05T02:45:59.194Z,0
2016-05-05T02:47:05.230Z,0
2016-05-05T02:48:05.092Z,0
2016-05-05T02:48:59.077Z,0
2016-05-05T02:49:59.032Z,0
2016-05-05T02:51:01.848Z,0
2016-05-05T02:51:59.179Z,0
2016-05-05T02:53:05.121Z,0
2016-05-05T02:53:59.199Z,0
2016-05-05T02:54:58.687Z,0
2016-05-05T02:55:58.736Z,0
2016-05-05T02:57:01.786Z,0
2016-05-05T02:58:02.116Z,0
2016-05-05T02:58:58.619Z,0
2016-05-05T02:59:58.560Z,0
2016-05-05T03:01:04.784Z,0
2016-05-05T03:01:58.362Z,0
2016-05-05T03:02:58.427Z,0
2016-05-05T03:03:58.398Z,0
2016-05-05T03:05:01.339Z,0
2016-05-05T03:06:04.656Z,0
2016-05-05T03:07:07.347Z,0
2016-05-05T03:07:58.222Z,0
2016-05-05T03:09:04.712Z,0
2016-05-05T03:09:57.993Z,0
2016-05-05T03:11:00.808Z,0
2016-05-05T03:11:58.091Z,0
2016-05-05T03:12:58.000Z,0
2016-05-05T03:13:57.941Z,0
2016-05-05T03:15:00.912Z,0
2016-05-05T03:15:57.711Z,0
2016-05-05T03:16:57.808Z,0
2016-05-05T03:18:00.608Z,0
2016-05-05T03:18:57.720Z,0
2016-05-05T03:19:57.723Z,0
2016-05-05T03:20:57.647Z,0
2016-05-05T03:22:00.305Z,0
2016-05-05T03:22:57.746Z,0
2016-05-05T03:23:57.671Z,0
2016-05-05T03:24:57.689Z,0
2016-05-05T03:25:57.396Z,0
2016-05-05T03:26:57.569Z,0
2016-05-05T03:28:00.322Z,0
2016-05-05T03:28:57.449Z,0
2016-05-05T03:29:57.235Z,0
2016-05-05T03:31:03.377Z,0
2016-05-05T03:32:00.129Z,0
2016-05-05T03:33:00.117Z,0
2016-05-05T03:33:59.901Z,0
2016-05-05T03:35:03.201Z,0
2016-05-05T03:35:56.938Z,0
2016-05-05T03:36:56.878Z,0
2016-05-05T03:37:56.724Z,0
2016-05-05T03:39:00.259Z,0
2016-05-05T03:39:57.183Z,0
2016-05-05T03:40:59.592Z,0
2016-05-05T03:42:02.703Z,0
2016-05-05T03:42:56.487Z,0
2016-05-05T03:43:59.662Z,0
2016-05-05T03:44:56.400Z,0
2016-05-05T03:45:59.558Z,0
2016-05-05T03:47:02.452Z,0
2016-05-05T03:47:59.736Z,0
2016-05-05T03:48:56.223Z,0
2016-05-05T03:49:56.006Z,0
2016-05-05T03:50:59.133Z,0
2016-05-05T03:51:59.277Z,0
2016-05-05T03:52:56.186Z,0
2016-05-05T03:53:56.001Z,0
2016-05-05T03:54:57.051Z,0
2016-05-05T03:55:55.882Z,0
2016-05-05T03:56:59.025Z,0
2016-05-05T03:57:59.216Z,0
2016-05-05T03:58:55.921Z,0
2016-05-05T03:59:58.752Z,0
2016-05-05T04:01:01.692Z,0
2016-05-05T04:01:59.335Z,0
2016-05-05T04:03:05.010Z,0
2016-05-05T04:03:58.528Z,0
2016-05-05T04:04:55.890Z,0
2016-05-05T04:05:55.659Z,0
2016-05-05T04:06:55.552Z,0
2016-05-05T04:07:55.493Z,0
2016-05-05T04:09:01.339Z,0
2016-05-05T04:09:55.764Z,0
2016-05-05T04:10:55.375Z,0
2016-05-05T04:11:55.175Z,0
2016-05-05T04:12:58.350Z,0
2016-05-05T04:13:58.446Z,0
2016-05-05T04:14:55.058Z,0
2016-05-05T04:15:55.155Z,0
2016-05-05T04:16:54.939Z,0
2016-05-05T04:17:55.098Z,0
2016-05-05T04:18:58.022Z,0
2016-05-05T04:19:54.822Z,0
2016-05-05T04:20:58.152Z,0
2016-05-05T04:21:54.905Z,0
2016-05-05T04:22:54.877Z,0
2016-05-05T04:23:58.004Z,0
2016-05-05T04:24:55.116Z,0
2016-05-05T04:25:54.385Z,0
2016-05-05T04:26:54.497Z,0
2016-05-05T04:27:54.609Z,0
2016-05-05T04:28:57.611Z,0
2016-05-05T04:29:54.193Z,0
2016-05-05T04:30:54.320Z,0
2016-05-05T04:32:03.369Z,0
2016-05-05T04:32:54.388Z,0
2016-05-05T04:33:54.359Z,0
2016-05-05T04:35:00.534Z,0
2016-05-05T04:35:54.239Z,0
2016-05-05T04:36:57.415Z,0
2016-05-05T04:37:54.182Z,0
2016-05-05T04:38:54.342Z,0
2016-05-05T04:39:54.610Z,0
2016-05-05T04:40:54.018Z,0
2016-05-05T04:41:57.178Z,0
2016-05-05T04:42:59.946Z,0
2016-05-05T04:43:53.886Z,0
2016-05-05T04:44:57.264Z,0
2016-05-05T04:45:53.782Z,0
2016-05-05T04:46:54.129Z,0
2016-05-05T04:47:53.709Z,0
2016-05-05T04:48:53.539Z,0
2016-05-05T04:49:53.465Z,0
2016-05-05T04:50:53.452Z,0
2016-05-05T04:51:56.314Z,0
2016-05-05T04:52:56.488Z,0
2016-05-05T04:53:53.429Z,0
2016-05-05T04:54:56.588Z,0
2016-05-05T04:55:56.558Z,0
2016-05-05T04:56:53.297Z,0
2016-05-05T04:57:53.096Z,0
2016-05-05T04:58:53.066Z,0
2016-05-05T04:59:56.227Z,0
2016-05-05T05:00:52.947Z,0
2016-05-05T05:01:55.763Z,0
2016-05-05T05:02:53.047Z,0
2016-05-05T05:03:53.018Z,0
2016-05-05T05:04:52.942Z,0
2016-05-05T05:05:55.976Z,0
2016-05-05T05:06:55.886Z,0
2016-05-05T05:07:52.779Z,0
2016-05-05T05:08:55.969Z,0
2016-05-05T05:09:52.846Z,0
2016-05-05T05:10:52.662Z,0
2016-05-05T05:11:52.476Z,0
2016-05-05T05:12:55.434Z,0
2016-05-05T05:13:52.373Z,0
2016-05-05T05:14:52.517Z,0
2016-05-05T05:15:52.613Z,0
2016-05-05T05:16:52.319Z,0
2016-05-05T05:17:52.571Z,0
2016-05-05T05:18:52.324Z,0
2016-05-05T05:19:55.295Z,0
2016-05-05T05:20:52.455Z,0
2016-05-05T05:21:52.192Z,0
2016-05-05T05:22:54.975Z,0
2016-05-05T05:23:55.306Z,0
2016-05-05T05:24:55.591Z,0
2016-05-05T05:25:51.983Z,0
2016-05-05T05:26:51.924Z,0
2016-05-05T05:27:51.910Z,0
2016-05-05T05:28:51.413Z,0
2016-05-05T05:29:54.807Z,0
2016-05-05T05:30:54.794Z,0
2016-05-05T05:31:51.937Z,0
2016-05-05T05:32:54.518Z,0
2016-05-05T05:33:51.646Z,0
2016-05-05T05:34:51.570Z,0
2016-05-05T05:35:51.541Z,0
2016-05-05T05:36:51.513Z,0
2016-05-05T05:37:51.453Z,0
2016-05-05T05:38:51.409Z,0
2016-05-05T05:39:51.443Z,0
2016-05-05T05:40:51.165Z,0
2016-05-05T05:41:51.339Z,0
2016-05-05T05:42:54.232Z,0
2016-05-05T05:43:51.266Z,0
2016-05-05T05:44:51.144Z,0
2016-05-05T05:45:51.100Z,0
2016-05-05T05:46:51.118Z,0
2016-05-05T05:47:51.011Z,0
2016-05-05T05:48:50.670Z,0
2016-05-05T05:49:50.908Z,0
2016-05-05T05:50:50.941Z,0
2016-05-05T05:51:50.850Z,0
2016-05-05T05:52:50.806Z,0
2016-05-05T05:53:50.761Z,0
2016-05-05T05:54:51.467Z,0
2016-05-05T05:55:50.502Z,0
2016-05-05T05:56:50.613Z,0
2016-05-05T05:57:53.397Z,0
2016-05-05T05:58:50.510Z,0
2016-05-05T05:59:50.481Z,0
2016-05-05T06:00:50.421Z,0
2016-05-05T06:01:50.377Z,0
2016-05-05T06:02:56.379Z,0
2016-05-05T06:03:50.288Z,0
2016-05-05T06:04:53.291Z,0
2016-05-05T06:05:53.404Z,0
2016-05-05T06:06:53.172Z,0
2016-05-05T06:07:52.956Z,0
2016-05-05T06:08:53.083Z,0
2016-05-05T06:09:53.226Z,0
2016-05-05T06:10:49.996Z,0
2016-05-05T06:11:49.982Z,0
2016-05-05T06:12:58.656Z,0
2016-05-05T06:13:49.925Z,0
2016-05-05T06:14:55.787Z,0
2016-05-05T06:15:50.102Z,0
2016-05-05T06:16:52.714Z,0
2016-05-05T06:17:52.701Z,0
2016-05-05T06:18:49.813Z,0
2016-05-05T06:19:52.566Z,0
2016-05-05T06:20:52.522Z,0
2016-05-05T06:21:49.337Z,0
2016-05-05T06:22:49.308Z,0
2016-05-05T06:23:49.383Z,0
2016-05-05T06:24:50.089Z,0
2016-05-05T06:25:49.295Z,0
2016-05-05T06:26:49.111Z,0
2016-05-05T06:27:49.051Z,0
2016-05-05T06:28:49.162Z,0
2016-05-05T06:29:52.196Z,0
2016-05-05T06:30:49.074Z,0
2016-05-05T06:31:52.124Z,0
2016-05-05T06:32:49.033Z,0
2016-05-05T06:33:49.129Z,0
2016-05-05T06:34:49.304Z,0
2016-05-05T06:35:54.868Z,0
2016-05-05T06:36:51.856Z,0
2016-05-05T06:37:54.796Z,0
2016-05-05T06:38:48.720Z,0
2016-05-05T06:39:57.551Z,0
2016-05-05T06:40:49.539Z,0
2016-05-05T06:41:48.634Z,0
2016-05-05T06:42:48.576Z,0
2016-05-05T06:43:48.531Z,0
2016-05-05T06:44:51.378Z,0
2016-05-05T06:45:51.411Z,0
2016-05-05T06:46:48.211Z,0
2016-05-05T06:47:48.339Z,0
2016-05-05T06:48:48.278Z,0
2016-05-05T06:49:48.281Z,0
2016-05-05T06:50:48.003Z,0
2016-05-05T06:51:51.349Z,0
2016-05-05T06:52:51.071Z,0
2016-05-05T06:53:48.074Z,0
2016-05-05T06:54:48.233Z,0
2016-05-05T06:55:53.969Z,0
2016-05-05T06:56:50.894Z,0
2016-05-05T06:57:50.944Z,0
2016-05-05T06:58:50.665Z,0
2016-05-05T06:59:50.762Z,0
2016-05-05T07:00:47.732Z,0
2016-05-05T07:01:47.705Z,0
2016-05-05T07:02:47.488Z,0
2016-05-05T07:03:47.585Z,0
2016-05-05T07:04:47.526Z,0
2016-05-05T07:05:47.497Z,0
2016-05-05T07:06:50.452Z,0
2016-05-05T07:07:47.393Z,0
2016-05-05T07:08:50.411Z,0
2016-05-05T07:09:47.179Z,0
2016-05-05T07:10:47.260Z,0
2016-05-05T07:11:50.247Z,0
2016-05-05T07:12:47.375Z,0
2016-05-05T07:13:46.987Z,0
2016-05-05T07:14:47.584Z,0
2016-05-05T07:15:47.039Z,0
2016-05-05T07:16:49.885Z,0
2016-05-05T07:17:47.139Z,0
2016-05-05T07:18:46.922Z,0
2016-05-05T07:19:46.909Z,0
2016-05-05T07:20:53.083Z,0
2016-05-05T07:21:49.774Z,0
2016-05-05T07:22:52.745Z,0
2016-05-05T07:23:49.685Z,0
2016-05-05T07:24:46.938Z,0
2016-05-05T07:25:49.613Z,0
2016-05-05T07:26:49.991Z,0
2016-05-05T07:27:55.758Z,0
2016-05-05T07:28:49.465Z,0
2016-05-05T07:29:46.405Z,0
2016-05-05T07:30:46.439Z,0
2016-05-05T07:31:46.379Z,0
2016-05-05T07:32:46.304Z,0
2016-05-05T07:33:52.291Z,0
2016-05-05T07:34:46.184Z,0
2016-05-05T07:35:46.015Z,0
2016-05-05T07:36:49.112Z,0
2016-05-05T07:37:49.535Z,0
2016-05-05T07:38:49.023Z,0
2016-05-05T07:39:45.822Z,0
2016-05-05T07:40:48.951Z,0
2016-05-05T07:41:51.796Z,0
2016-05-05T07:42:46.345Z,0
2016-05-05T07:43:45.802Z,0
2016-05-05T07:44:45.836Z,0
2016-05-05T07:45:45.698Z,0
2016-05-05T07:46:45.841Z,0
2016-05-05T07:47:51.641Z,0
2016-05-05T07:48:48.565Z,0
2016-05-05T07:49:45.505Z,0
2016-05-05T07:50:48.290Z,0
2016-05-05T07:51:45.605Z,0
2016-05-05T07:52:48.373Z,0
2016-05-05T07:53:45.172Z,0
2016-05-05T07:54:49.035Z,0
2016-05-05T07:55:48.255Z,0
2016-05-05T07:56:45.602Z,0
2016-05-05T07:57:44.980Z,0
2016-05-05T07:58:45.092Z,0
2016-05-05T07:59:44.939Z,0
2016-05-05T08:00:45.066Z,0
2016-05-05T08:01:44.975Z,0
2016-05-05T08:02:44.946Z,0
2016-05-05T08:03:48.309Z,0
2016-05-05T08:04:47.843Z,0
2016-05-05T08:05:44.799Z,0
2016-05-05T08:06:44.614Z,0
2016-05-05T08:07:44.554Z,0
2016-05-05T08:08:50.525Z,0
2016-05-05T08:09:50.810Z,0
2016-05-05T08:10:44.265Z,0
2016-05-05T08:11:44.721Z,0
2016-05-05T08:12:44.223Z,0
2016-05-05T08:13:47.304Z,0
2016-05-05T08:14:44.401Z,0
2016-05-05T08:15:47.201Z,0
2016-05-05T08:16:44.172Z,0
2016-05-05T08:17:44.517Z,0
2016-05-05T08:18:44.225Z,0
2016-05-05T08:19:47.148Z,0
2016-05-05T08:20:44.120Z,0
2016-05-05T08:21:43.764Z,0
2016-05-05T08:22:44.064Z,0
2016-05-05T08:23:48.456Z,0
2016-05-05T08:24:45.022Z,0
2016-05-05T08:25:43.899Z,0
2016-05-05T08:26:43.871Z,0
2016-05-05T08:27:44.014Z,0
2016-05-05T08:28:43.830Z,0
2016-05-05T08:29:43.707Z,0
2016-05-05T08:30:43.522Z,0
2016-05-05T08:31:43.619Z,0
2016-05-05T08:32:46.590Z,0
2016-05-05T08:33:46.843Z,0
2016-05-05T08:34:43.502Z,48
2016-05-05T08:35:43.441Z,100
2016-05-05T08:36:46.648Z,108
2016-05-05T08:37:43.385Z,128
2016-05-05T09:16:48.974Z,1964
2016-05-05T09:17:45.946Z,1964
2016-05-05T09:18:45.916Z,1968
2016-05-05T09:19:48.826Z,1968
2016-05-05T09:20:49.016Z,1976
2016-05-05T09:21:48.800Z,1976
2016-05-05T09:22:48.865Z,1996
2016-05-05T09:23:48.602Z,1996
2016-05-05T09:24:45.667Z,1992
2016-05-05T09:25:48.497Z,1996
2016-05-05T09:26:45.345Z,1992
2016-05-05T09:27:48.847Z,1996
2016-05-05T09:28:45.350Z,1992
2016-05-05T09:29:45.371Z,1964
2016-05-05T09:30:48.545Z,2000
2016-05-05T09:31:48.208Z,1996
2016-05-05T09:32:45.906Z,2000
2016-05-05T09:33:48.091Z,2000
2016-05-05T09:34:45.046Z,2000
2016-05-05T09:35:48.033Z,1992
2016-05-05T09:36:47.833Z,1988
2016-05-05T09:37:44.976Z,1992
2016-05-05T09:38:44.853Z,2000
2016-05-05T09:39:45.169Z,1996
2016-05-05T09:40:44.749Z,1992
2016-05-05T09:41:44.596Z,1996
2016-05-05T09:42:44.671Z,2004
2016-05-05T09:43:44.705Z,2016
2016-05-05T09:44:47.567Z,2020
2016-05-05T09:45:50.397Z,2016
2016-05-05T09:46:44.370Z,2024
2016-05-05T09:47:48.356Z,2028
2016-05-05T09:48:44.218Z,2016
2016-05-05T09:49:50.393Z,2016
2016-05-05T09:50:44.473Z,2048
2016-05-05T09:51:44.226Z,2048
2016-05-05T09:52:44.120Z,2016
2016-05-05T09:53:43.997Z,2008
2016-05-05T09:54:44.109Z,2004
2016-05-05T09:55:47.066Z,2000
2016-05-05T09:56:46.880Z,2008
2016-05-05T09:57:43.961Z,2008
2016-05-05T09:58:44.120Z,1996
2016-05-05T09:59:46.904Z,2000
2016-05-05T10:00:43.844Z,2000
2016-05-05T10:01:43.628Z,2000
2016-05-05T10:02:43.599Z,2004
2016-05-05T10:03:43.899Z,2004
2016-05-05T10:04:43.307Z,2000
2016-05-05T10:05:43.560Z,2000
2016-05-05T10:06:43.407Z,2004
2016-05-05T10:07:43.473Z,2012
2016-05-05T10:08:43.412Z,2012
2016-05-05T10:09:43.399Z,2020
2016-05-05T10:10:47.059Z,2024
2016-05-05T10:11:46.139Z,2020
2016-05-05T10:12:42.955Z,2032
2016-05-05T10:13:43.207Z,2044
2016-05-05T10:14:46.350Z,2040
2016-05-05T10:15:43.166Z,2040
2016-05-05T10:16:43.075Z,2048
2016-05-05T10:17:46.077Z,2044
2016-05-05T10:18:42.971Z,2028
2016-05-05T10:19:42.942Z,2032
2016-05-05T10:20:42.757Z,2032
2016-05-05T10:21:42.839Z,2036
2016-05-05T10:22:43.106Z,2044
2016-05-05T10:23:42.703Z,2036
2016-05-05T10:24:43.361Z,2032
2016-05-05T10:25:42.630Z,2032
2016-05-05T10:26:42.774Z,2016
2016-05-05T10:27:42.995Z,2016
2016-05-05T10:28:45.154Z,2024
2016-05-05T10:29:45.282Z,2016
2016-05-05T10:30:42.409Z,2036
2016-05-05T10:31:42.333Z,2028
2016-05-05T10:32:42.150Z,2020
2016-05-05T10:33:42.261Z,2004
2016-05-05T10:34:42.296Z,1992
2016-05-05T10:35:42.016Z,2016
2016-05-05T10:36:42.191Z,2004
2016-05-05T10:37:42.085Z,2020
2016-05-05T10:38:42.024Z,2028
2016-05-05T10:39:41.980Z,2036
2016-05-05T10:40:41.764Z,2052
2016-05-05T10:41:41.892Z,2032
2016-05-05T10:42:41.520Z,2036
2016-05-05T10:43:44.804Z,2076
2016-05-05T10:44:41.743Z,2096
2016-05-05T10:45:41.731Z,2104
2016-05-05T10:46:41.843Z,2084
2016-05-05T10:47:41.596Z,2080
2016-05-05T10:48:41.520Z,2148
2016-05-05T10:49:41.523Z,2168
2016-05-05T10:50:41.478Z,2168
2016-05-05T10:51:44.466Z,2148
2016-05-05T10:52:44.359Z,2160
2016-05-05T10:53:41.189Z,2164
2016-05-05T10:54:41.364Z,2172
2016-05-05T10:55:41.086Z,2168
2016-05-05T10:56:45.167Z,2180
2016-05-05T10:57:41.138Z,2180
2016-05-05T10:58:41.251Z,2192
2016-05-05T10:59:40.953Z,2200
2016-05-05T11:00:41.171Z,2200
2016-05-05T11:01:41.656Z,2208
2016-05-05T11:02:42.217Z,2204
2016-05-05T11:03:40.759Z,2200
2016-05-05T11:04:40.903Z,2192
2016-05-05T11:05:41.030Z,2188
2016-05-05T11:06:41.065Z,2188
2016-05-05T11:07:43.989Z,2180
2016-05-05T11:08:40.782Z,2164
2016-05-05T11:09:40.900Z,2172
2016-05-05T11:10:40.595Z,2168
2016-05-05T11:11:40.791Z,2132
2016-05-05T11:12:40.861Z,2128
2016-05-05T11:13:40.538Z,2148
2016-05-05T11:14:40.652Z,2164
2016-05-05T11:15:40.672Z,2184
2016-05-05T11:16:40.443Z,2184
2016-05-05T11:17:40.728Z,2188
2016-05-05T11:18:40.499Z,2240
2016-05-05T11:19:43.658Z,2248
2016-05-05T11:20:40.395Z,2228
2016-05-05T11:21:40.430Z,2256
2016-05-05T11:22:40.668Z,2280
2016-05-05T11:23:40.355Z,2284
2016-05-05T11:24:42.937Z,2300
2016-05-05T11:25:43.377Z,2308
2016-05-05T11:26:40.161Z,2284
2016-05-05T11:27:40.133Z,2272
2016-05-05T11:28:39.886Z,2268
2016-05-05T11:29:40.077Z,2256
2016-05-05T11:30:42.969Z,2256
2016-05-05T11:31:39.770Z,2264
2016-05-05T11:32:39.851Z,2268
2016-05-05T11:33:39.806Z,2272
2016-05-05T11:34:39.761Z,2256
2016-05-05T11:35:42.608Z,2260
2016-05-05T11:36:39.674Z,2236
2016-05-05T11:37:39.613Z,2232
2016-05-05T11:38:39.569Z,2252
2016-05-05T11:39:39.370Z,2252
2016-05-05T11:40:39.575Z,2272
2016-05-05T11:41:39.485Z,2260
2016-05-05T11:42:39.408Z,2260
2016-05-05T11:43:42.365Z,2248
2016-05-05T11:44:39.163Z,2252
2016-05-05T11:45:42.261Z,2252
2016-05-05T11:46:42.216Z,2248
2016-05-05T11:47:42.751Z,2336
2016-05-05T11:48:42.174Z,2336
2016-05-05T11:49:48.131Z,2252
2016-05-05T11:50:39.024Z,2264
2016-05-05T11:51:42.386Z,2244
2016-05-05T11:52:41.951Z,2228
2016-05-05T11:53:41.892Z,2244
2016-05-05T11:54:45.145Z,2260
2016-05-05T11:55:38.648Z,2296
2016-05-05T11:56:39.056Z,2340
2016-05-05T11:57:44.699Z,2332
2016-05-05T11:58:41.873Z,2320
2016-05-05T11:59:41.611Z,2312
2016-05-05T12:00:41.535Z,2348
2016-05-05T12:01:38.553Z,2356
2016-05-05T12:02:47.322Z,2352
2016-05-05T12:03:39.387Z,2340
2016-05-05T12:04:41.109Z,2348
2016-05-05T12:05:41.345Z,2356
2016-05-05T12:06:41.302Z,2364
2016-05-05T12:07:40.944Z,2368
2016-05-05T12:08:41.432Z,2368
2016-05-05T12:09:41.341Z,2352
2016-05-05T12:10:41.328Z,2384
2016-05-05T12:11:41.377Z,2376
2016-05-05T12:12:38.036Z,2388
2016-05-05T12:13:40.976Z,2380
2016-05-05T12:14:40.948Z,2396
2016-05-05T12:15:41.106Z,2400
2016-05-05T12:16:40.922Z,2408
2016-05-05T12:17:37.832Z,2404
2016-05-05T12:18:37.755Z,2420
2016-05-05T12:19:37.696Z,2420
2016-05-05T12:20:40.667Z,2420
2016-05-05T12:21:40.654Z,2424
2016-05-05T12:22:38.031Z,2424
2016-05-05T12:23:40.518Z,2424
2016-05-05T12:24:43.507Z,2428
2016-05-05T12:25:38.040Z,2428
2016-05-05T12:26:37.715Z,2420
2016-05-05T12:27:37.217Z,2416
2016-05-05T12:28:37.361Z,2416
2016-05-05T12:29:37.253Z,2424
2016-05-05T12:30:46.226Z,2436
2016-05-05T12:31:37.353Z,2448
2016-05-05T12:32:43.152Z,2452
2016-05-05T12:33:37.514Z,2452
2016-05-05T12:34:37.080Z,2444
2016-05-05T12:35:39.863Z,2456
2016-05-05T12:36:36.944Z,2468
2016-05-05T12:37:36.775Z,2484
2016-05-05T12:38:39.856Z,2496
2016-05-05T12:39:43.374Z,2500
2016-05-05T12:40:39.752Z,2512
2016-05-05T12:41:39.739Z,2504
2016-05-05T12:42:36.694Z,2504
2016-05-05T12:43:39.651Z,2520
2016-05-05T12:44:36.607Z,2516
2016-05-05T12:45:36.391Z,2508
2016-05-05T12:46:42.502Z,2508
2016-05-05T12:47:36.458Z,2512
2016-05-05T12:48:36.321Z,2504
2016-05-05T12:49:39.385Z,2492
2016-05-05T12:51:03.201Z,2500
2016-05-05T12:51:39.140Z,2500
2016-05-05T12:52:36.237Z,2504
2016-05-05T12:53:36.209Z,2504
2016-05-05T12:54:45.321Z,2512
2016-05-05T12:55:39.090Z,2520
2016-05-05T12:56:39.248Z,2528
2016-05-05T12:57:36.063Z,2536
2016-05-05T12:58:35.784Z,2540
2016-05-05T12:59:39.163Z,2548
2016-05-05T13:00:35.712Z,2548
2016-05-05T13:01:41.887Z,2556
2016-05-05T13:02:36.217Z,2560
2016-05-05T13:03:38.611Z,2596
2016-05-05T13:04:35.708Z,2576
2016-05-05T13:05:38.678Z,2588
2016-05-05T13:06:38.588Z,2596
2016-05-05T13:07:35.747Z,2596
2016-05-05T13:08:35.625Z,2596
2016-05-05T13:09:38.892Z,2608
2016-05-05T13:10:38.427Z,2608
2016-05-05T13:11:38.227Z,2616
2016-05-05T13:12:35.650Z,2624
2016-05-05T13:13:35.294Z,2624
2016-05-05T13:14:38.530Z,2620
2016-05-05T13:15:35.049Z,2640
2016-05-05T13:16:38.193Z,2656
2016-05-05T13:17:35.305Z,2656
2016-05-05T13:18:35.166Z,2660
2016-05-05T13:19:38.123Z,2672
2016-05-05T13:20:34.844Z,2668
2016-05-05T13:21:35.207Z,2668
2016-05-05T13:22:34.771Z,2676
2016-05-05T13:23:34.868Z,2676
2016-05-05T13:24:37.996Z,2680
2016-05-05T13:25:38.264Z,2696
2016-05-05T13:26:38.423Z,2708
2016-05-05T13:27:34.660Z,2712
2016-05-05T13:28:34.631Z,2720
2016-05-05T13:29:40.962Z,2740
2016-05-05T13:30:37.731Z,2752
2016-05-05T13:31:37.780Z,2760
2016-05-05T13:32:43.329Z,2764
2016-05-05T13:33:37.411Z,2764
2016-05-05T13:34:34.476Z,2760
2016-05-05T13:35:37.837Z,2764
2016-05-05T13:36:40.324Z,2776
2016-05-05T13:37:33.984Z,2784
2016-05-05T13:38:40.174Z,2784
2016-05-05T13:39:38.708Z,2784
2016-05-05T13:40:35.976Z,2784
2016-05-05T13:41:34.103Z,2788
2016-05-05T13:42:34.310Z,2792
2016-05-05T13:43:37.016Z,2792
2016-05-05T13:44:33.768Z,2800
2016-05-05T13:45:36.896Z,2808
2016-05-05T13:46:34.086Z,2820
2016-05-05T13:47:33.808Z,2820
2016-05-05T13:48:33.747Z,2840
2016-05-05T13:49:33.718Z,2848
2016-05-05T13:50:33.660Z,2848
2016-05-05T13:51:33.615Z,2856
2016-05-05T13:52:33.587Z,2876
2016-05-05T13:53:36.543Z,2872
2016-05-05T13:54:39.576Z,2876
2016-05-05T13:55:34.298Z,2892
2016-05-05T13:56:36.394Z,2904
2016-05-05T13:57:39.396Z,2916
2016-05-05T13:58:33.165Z,2928
2016-05-05T13:59:36.371Z,2924
2016-05-05T14:00:33.623Z,2932
2016-05-05T14:01:33.189Z,2940
2016-05-05T14:02:57.206Z,2928
2016-05-05T14:03:39.334Z,2928
2016-05-05T14:04:36.275Z,2940
2016-05-05T14:05:33.418Z,2936
2016-05-05T14:06:35.795Z,2948
2016-05-05T14:07:32.780Z,2952
2016-05-05T14:08:32.942Z,2952
2016-05-05T14:09:32.848Z,2956
2016-05-05T14:10:33.822Z,2972
2016-05-05T14:11:32.760Z,2976
2016-05-05T14:12:38.609Z,2980
2016-05-05T14:13:32.672Z,2984
2016-05-05T14:14:32.862Z,2992
2016-05-05T14:15:35.430Z,3008
2016-05-05T14:16:35.572Z,3036
2016-05-05T14:17:32.682Z,3064
2016-05-05T14:18:38.484Z,3072
2016-05-05T14:19:32.390Z,3076
2016-05-05T14:20:32.580Z,3068
2016-05-05T14:21:32.163Z,3064
2016-05-05T14:22:32.321Z,3064
2016-05-05T14:23:32.432Z,3076
2016-05-05T14:24:32.216Z,3072
2016-05-05T14:25:34.191Z,3068
2016-05-05T14:26:31.941Z,3088
2016-05-05T14:27:31.912Z,3092
2016-05-05T14:28:31.852Z,3092
2016-05-05T14:29:31.996Z,3112
2016-05-05T14:30:31.905Z,3124
2016-05-05T14:31:31.892Z,3140
2016-05-05T14:32:31.692Z,3152
2016-05-05T14:33:32.007Z,3172
2016-05-05T14:34:31.744Z,3192
2016-05-05T14:35:34.577Z,3196
2016-05-05T14:36:31.670Z,3212
2016-05-05T14:37:34.833Z,3224
2016-05-05T14:38:31.286Z,3240
2016-05-05T14:39:37.572Z,3248
2016-05-05T14:40:35.419Z,3252
2016-05-05T14:41:31.544Z,3252
2016-05-05T14:42:37.643Z,3256
2016-05-05T14:43:31.456Z,3268
2016-05-05T14:44:31.302Z,3276
2016-05-05T14:45:31.539Z,3280
2016-05-05T14:46:34.561Z,3300
2016-05-05T14:47:31.451Z,3312
2016-05-05T14:48:34.862Z,3328